sensor_id;sensor_type;location;lat;lon;timestamp;pressure;altitude;pressure_sealevel;temperature;humidity
70544;BME280;58097;48.364;-1.224;2023-02-17T00:01:22;100769.69;;;11.46;100.00
70544;BME280;58097;48.364;-1.224;2023-02-17T00:03:50;100767.50;;;11.49;100.00
70544;BME280;58097;48.364;-1.224;2023-02-17T00:06:17;100763.72;;;11.51;100.00
70544;BME280;58097;48.364;-1.224;2023-02-17T00:08:43;100764.44;;;11.53;100.00
70544;BME280;58097;48.364;-1.224;2023-02-17T00:11:09;100767.94;;;11.55;100.00
70544;BME280;58097;48.364;-1.224;2023-02-17T00:13:34;100778.59;;;11.59;100.00
70544;BME280;58097;48.364;-1.224;2023-02-17T00:16:05;100775.97;;;11.58;100.00
70544;BME280;58097;48.364;-1.224;2023-02-17T00:18:31;100777.00;;;11.57;100.00
70544;BME280;58097;48.364;-1.224;2023-02-17T00:20:56;100775.22;;;11.56;100.00
70544;BME280;58097;48.364;-1.224;2023-02-17T00:23:21;100777.97;;;11.56;100.00
70544;BME280;58097;48.364;-1.224;2023-02-17T00:25:47;100771.44;;;11.57;100.00
70544;BME280;58097;48.364;-1.224;2023-02-17T00:28:12;100775.22;;;11.56;100.00
70544;BME280;58097;48.364;-1.224;2023-02-17T00:30:37;100777.72;;;11.59;100.00
70544;BME280;58097;48.364;-1.224;2023-02-17T00:33:03;100779.75;;;11.57;100.00
70544;BME280;58097;48.364;-1.224;2023-02-17T00:35:29;100774.22;;;11.57;100.00
70544;BME280;58097;48.364;-1.224;2023-02-17T00:37:54;100775.22;;;11.56;100.00
70544;BME280;58097;48.364;-1.224;2023-02-17T00:40:19;100775.22;;;11.56;100.00
70544;BME280;58097;48.364;-1.224;2023-02-17T00:42:45;100775.09;;;11.57;100.00
70544;BME280;58097;48.364;-1.224;2023-02-17T00:45:10;100777.97;;;11.56;100.00
70544;BME280;58097;48.364;-1.224;2023-02-17T00:47:35;100770.53;;;11.56;100.00
70544;BME280;58097;48.364;-1.224;2023-02-17T00:50:01;100772.19;;;11.59;100.00
70544;BME280;58097;48.364;-1.224;2023-02-17T00:52:26;100773.31;;;11.56;100.00
70544;BME280;58097;48.364;-1.224;2023-02-17T00:54:52;100770.53;;;11.56;100.00
70544;BME280;58097;48.364;-1.224;2023-02-17T00:57:17;100768.06;;;11.53;100.00
70544;BME280;58097;48.364;-1.224;2023-02-17T00:59:42;100768.06;;;11.53;100.00
70544;BME280;58097;48.364;-1.224;2023-02-17T01:02:08;100769.81;;;11.54;100.00
70544;BME280;58097;48.364;-1.224;2023-02-17T01:04:33;100768.69;;;11.57;100.00
70544;BME280;58097;48.364;-1.224;2023-02-17T01:06:58;100763.16;;;11.57;100.00
70544;BME280;58097;48.364;-1.224;2023-02-17T01:09:24;100766.03;;;11.55;100.00
70544;BME280;58097;48.364;-1.224;2023-02-17T01:11:49;100764.44;;;11.53;100.00
70544;BME280;58097;48.364;-1.224;2023-02-17T01:14:16;100765.44;;;11.52;100.00
70544;BME280;58097;48.364;-1.224;2023-02-17T01:16:46;100760.78;;;11.52;100.00
70544;BME280;58097;48.364;-1.224;2023-02-17T01:19:16;100768.94;;;11.54;100.00
70544;BME280;58097;48.364;-1.224;2023-02-17T01:21:42;100768.94;;;11.54;100.00
70544;BME280;58097;48.364;-1.224;2023-02-17T01:24:08;100766.47;;;11.51;100.00
70544;BME280;58097;48.364;-1.224;2023-02-17T01:26:35;100755.25;;;11.52;100.00
70544;BME280;58097;48.364;-1.224;2023-02-17T01:29:01;100763.25;;;11.55;100.00
70544;BME280;58097;48.364;-1.224;2023-02-17T01:31:27;100765.16;;;11.55;100.00
70544;BME280;58097;48.364;-1.224;2023-02-17T01:33:55;100759.63;;;11.55;100.00
70544;BME280;58097;48.364;-1.224;2023-02-17T01:36:21;100761.38;;;11.56;100.00
70544;BME280;58097;48.364;-1.224;2023-02-17T01:38:47;100760.94;;;11.51;100.00
70544;BME280;58097;48.364;-1.224;2023-02-17T01:41:14;100770.25;;;11.49;100.00
70544;BME280;58097;48.364;-1.224;2023-02-17T01:43:40;100762.09;;;11.48;100.00
70544;BME280;58097;48.364;-1.224;2023-02-17T01:46:07;100771.13;;;11.50;100.00
70544;BME280;58097;48.364;-1.224;2023-02-17T01:48:43;100778.56;;;11.49;100.00
70544;BME280;58097;48.364;-1.224;2023-02-17T01:51:24;100768.38;;;11.50;100.00
70544;BME280;58097;48.364;-1.224;2023-02-17T01:54:04;100774.94;;;11.49;100.00
70544;BME280;58097;48.364;-1.224;2023-02-17T01:56:32;100782.78;;;11.54;100.00
70544;BME280;58097;48.364;-1.224;2023-02-17T01:59:02;100782.06;;;11.52;100.00
70544;BME280;58097;48.364;-1.224;2023-02-17T02:01:30;100770.25;;;11.49;100.00
70544;BME280;58097;48.364;-1.224;2023-02-17T02:03:57;100773.31;;;11.46;100.00
70544;BME280;58097;48.364;-1.224;2023-02-17T02:06:26;100768.38;;;11.40;100.00
70544;BME280;58097;48.364;-1.224;2023-02-17T02:09:20;100767.50;;;11.40;100.00
70544;BME280;58097;48.364;-1.224;2023-02-17T02:11:47;100753.97;;;11.37;100.00
70544;BME280;58097;48.364;-1.224;2023-02-17T02:14:12;100751.19;;;11.37;100.00
70544;BME280;58097;48.364;-1.224;2023-02-17T02:35:33;100748.41;;;11.27;100.00
70544;BME280;58097;48.364;-1.224;2023-02-17T02:38:12;100745.66;;;11.27;100.00
70544;BME280;58097;48.364;-1.224;2023-02-17T02:40:43;100752.50;;;11.33;100.00
70544;BME280;58097;48.364;-1.224;2023-02-17T02:43:11;100750.63;;;11.33;100.00
70544;BME280;58097;48.364;-1.224;2023-02-17T02:45:37;100753.25;;;11.35;100.00
70544;BME280;58097;48.364;-1.224;2023-02-17T02:48:02;100752.06;;;11.37;100.00
70544;BME280;58097;48.364;-1.224;2023-02-17T02:53:17;100748.44;;;11.37;100.00
70544;BME280;58097;48.364;-1.224;2023-02-17T03:01:56;100743.03;;;11.26;100.00
70544;BME280;58097;48.364;-1.224;2023-02-17T03:04:32;100743.78;;;11.28;100.00
70544;BME280;58097;48.364;-1.224;2023-02-17T03:07:17;100745.78;;;11.26;100.00
70544;BME280;58097;48.364;-1.224;2023-02-17T03:09:51;100738.38;;;11.26;100.00
70544;BME280;58097;48.364;-1.224;2023-02-17T03:12:17;100734.72;;;11.26;100.00
70544;BME280;58097;48.364;-1.224;2023-02-17T03:14:43;100735.34;;;11.29;100.00
70544;BME280;58097;48.364;-1.224;2023-02-17T03:17:09;100733.84;;;11.25;100.00
70544;BME280;58097;48.364;-1.224;2023-02-17T03:19:35;100731.22;;;11.24;100.00
70544;BME280;58097;48.364;-1.224;2023-02-17T03:22:06;100733.28;;;11.22;100.00
70544;BME280;58097;48.364;-1.224;2023-02-17T03:24:34;100730.78;;;11.18;100.00
70544;BME280;58097;48.364;-1.224;2023-02-17T03:27:00;100735.16;;;11.21;100.00
70544;BME280;58097;48.364;-1.224;2023-02-17T03:29:25;100733.13;;;11.23;100.00
70544;BME280;58097;48.364;-1.224;2023-02-17T03:31:50;100733.13;;;11.23;100.00
70544;BME280;58097;48.364;-1.224;2023-02-17T03:34:16;100739.53;;;11.24;100.00
70544;BME280;58097;48.364;-1.224;2023-02-17T03:36:41;100745.94;;;11.24;100.00
70544;BME280;58097;48.364;-1.224;2023-02-17T03:39:06;100747.97;;;11.22;100.00
70544;BME280;58097;48.364;-1.224;2023-02-17T03:41:32;100740.41;;;11.24;100.00
70544;BME280;58097;48.364;-1.224;2023-02-17T03:43:57;100741.28;;;11.25;100.00
70544;BME280;58097;48.364;-1.224;2023-02-17T03:46:23;100746.81;;;11.25;100.00
70544;BME280;58097;48.364;-1.224;2023-02-17T03:48:48;100739.97;;;11.19;100.00
70544;BME280;58097;48.364;-1.224;2023-02-17T03:51:16;100739.81;;;11.21;100.00
70544;BME280;58097;48.364;-1.224;2023-02-17T03:53:43;100738.94;;;11.20;100.00
70544;BME280;58097;48.364;-1.224;2023-02-17T03:56:10;100745.66;;;11.17;100.00
70544;BME280;58097;48.364;-1.224;2023-02-17T03:58:37;100743.75;;;11.18;100.00
70544;BME280;58097;48.364;-1.224;2023-02-17T04:01:03;100747.69;;;11.15;100.00
70544;BME280;58097;48.364;-1.224;2023-02-17T04:03:29;100749.44;;;11.16;100.00
70544;BME280;58097;48.364;-1.224;2023-02-17T04:05:54;100747.69;;;11.15;100.00
70544;BME280;58097;48.364;-1.224;2023-02-17T04:08:21;100754.38;;;11.13;100.00
70544;BME280;58097;48.364;-1.224;2023-02-17T04:10:53;100762.69;;;11.13;100.00
70544;BME280;58097;48.364;-1.224;2023-02-17T04:13:19;100765.44;;;11.13;100.00
70544;BME280;58097;48.364;-1.224;2023-02-17T04:15:44;100762.53;;;11.14;100.00
70544;BME280;58097;48.364;-1.224;2023-02-17T04:18:10;100767.19;;;11.14;100.00
70544;BME280;58097;48.364;-1.224;2023-02-17T04:20:35;100771.72;;;11.15;100.00
70544;BME280;58097;48.364;-1.224;2023-02-17T04:23:00;100775.34;;;11.15;100.00
70544;BME280;58097;48.364;-1.224;2023-02-17T04:25:26;100789.03;;;11.17;100.00
70544;BME280;58097;48.364;-1.224;2023-02-17T04:27:51;100781.03;;;11.14;100.00
70544;BME280;58097;48.364;-1.224;2023-02-17T04:30:16;100782.06;;;11.13;100.00
70544;BME280;58097;48.364;-1.224;2023-02-17T04:32:42;100787.59;;;11.13;100.00
70544;BME280;58097;48.364;-1.224;2023-02-17T04:35:07;100794.88;;;11.14;100.00
70544;BME280;58097;48.364;-1.224;2023-02-17T04:37:32;100795.75;;;11.14;100.00
70544;BME280;58097;48.364;-1.224;2023-02-17T04:39:58;100799.25;;;11.16;100.00
70544;BME280;58097;48.364;-1.224;2023-02-17T04:42:23;100794.88;;;11.14;100.00
70544;BME280;58097;48.364;-1.224;2023-02-17T04:44:49;100792.09;;;11.14;100.00
70544;BME280;58097;48.364;-1.224;2023-02-17T04:47:14;100803.47;;;11.11;100.00
70544;BME280;58097;48.364;-1.224;2023-02-17T04:49:40;100800.09;;;11.07;100.00
70544;BME280;58097;48.364;-1.224;2023-02-17T04:52:05;100807.38;;;11.08;100.00
70544;BME280;58097;48.364;-1.224;2023-02-17T04:54:30;100802.72;;;11.09;100.00
70544;BME280;58097;48.364;-1.224;2023-02-17T04:56:56;100802.44;;;11.12;100.00
70544;BME280;58097;48.364;-1.224;2023-02-17T04:59:21;100814.38;;;11.12;100.00
70544;BME280;58097;48.364;-1.224;2023-02-17T05:01:46;100806.81;;;11.14;100.00
70544;BME280;58097;48.364;-1.224;2023-02-17T05:04:12;100806.94;;;11.13;100.00
70544;BME280;58097;48.364;-1.224;2023-02-17T05:06:37;100804.19;;;11.13;100.00
70544;BME280;58097;48.364;-1.224;2023-02-17T05:09:02;100805.94;;;11.14;100.00
70544;BME280;58097;48.364;-1.224;2023-02-17T05:11:28;100805.63;;;11.07;100.00
70544;BME280;58097;48.364;-1.224;2023-02-17T05:13:53;100810.16;;;11.08;100.00
70544;BME280;58097;48.364;-1.224;2023-02-17T05:16:18;100812.78;;;11.10;100.00
70544;BME280;58097;48.364;-1.224;2023-02-17T05:18:44;100807.97;;;11.12;100.00
70544;BME280;58097;48.364;-1.224;2023-02-17T05:21:09;100807.81;;;11.13;100.00
70544;BME280;58097;48.364;-1.224;2023-02-17T05:23:35;100813.34;;;11.13;100.00
70544;BME280;58097;48.364;-1.224;2023-02-17T05:26:08;100817.88;;;11.14;100.00
70544;BME280;58097;48.364;-1.224;2023-02-17T05:28:35;100812.47;;;11.13;100.00
70544;BME280;58097;48.364;-1.224;2023-02-17T05:31:01;100822.69;;;11.12;100.00
70544;BME280;58097;48.364;-1.224;2023-02-17T05:33:27;100817.28;;;11.11;100.00
70544;BME280;58097;48.364;-1.224;2023-02-17T05:35:52;100826.47;;;11.11;100.00
70544;BME280;58097;48.364;-1.224;2023-02-17T05:38:17;100822.81;;;11.11;100.00
70544;BME280;58097;48.364;-1.224;2023-02-17T05:40:43;100826.31;;;11.13;100.00
70544;BME280;58097;48.364;-1.224;2023-02-17T05:43:08;100823.41;;;11.14;100.00
70544;BME280;58097;48.364;-1.224;2023-02-17T05:45:34;100830.53;;;11.17;100.00
70544;BME280;58097;48.364;-1.224;2023-02-17T05:47:59;100824.13;;;11.16;100.00
70544;BME280;58097;48.364;-1.224;2023-02-17T05:50:24;100820.34;;;11.17;100.00
70544;BME280;58097;48.364;-1.224;2023-02-17T05:52:50;100826.03;;;11.16;100.00
70544;BME280;58097;48.364;-1.224;2023-02-17T05:55:15;100824.84;;;11.09;100.00
70544;BME280;58097;48.364;-1.224;2023-02-17T05:57:40;100841.31;;;11.10;100.00
70544;BME280;58097;48.364;-1.224;2023-02-17T06:00:06;100836.66;;;11.11;100.00
70544;BME280;58097;48.364;-1.224;2023-02-17T06:02:32;100840.28;;;11.11;100.00
70544;BME280;58097;48.364;-1.224;2023-02-17T06:04:58;100831.84;;;11.13;100.00
70544;BME280;58097;48.364;-1.224;2023-02-17T06:07:23;100830.69;;;11.15;100.00
70544;BME280;58097;48.364;-1.224;2023-02-17T06:09:48;100833.31;;;11.17;100.00
70544;BME280;58097;48.364;-1.224;2023-02-17T06:12:14;100845.09;;;11.19;100.00
70544;BME280;58097;48.364;-1.224;2023-02-17T06:14:39;100845.69;;;11.23;100.00
70544;BME280;58097;48.364;-1.224;2023-02-17T06:17:04;100841.03;;;11.23;100.00
70544;BME280;58097;48.364;-1.224;2023-02-17T06:19:30;100851.09;;;11.24;100.00
70544;BME280;58097;48.364;-1.224;2023-02-17T06:21:55;100841.31;;;11.20;100.00
70544;BME280;58097;48.364;-1.224;2023-02-17T06:24:21;100834.19;;;11.17;100.00
70544;BME280;58097;48.364;-1.224;2023-02-17T06:26:46;100846.41;;;11.15;100.00
70544;BME280;58097;48.364;-1.224;2023-02-17T06:29:12;100847.16;;;11.17;100.00
70544;BME280;58097;48.364;-1.224;2023-02-17T06:31:37;100852.38;;;11.20;100.00
70544;BME280;58097;48.364;-1.224;2023-02-17T06:34:02;100851.97;;;11.25;100.00
70544;BME280;58097;48.364;-1.224;2023-02-17T06:36:28;100848.16;;;11.26;100.00
70544;BME280;58097;48.364;-1.224;2023-02-17T06:38:53;100854.31;;;11.29;100.00
70544;BME280;58097;48.364;-1.224;2023-02-17T06:41:18;100850.78;;;11.27;100.00
70544;BME280;58097;48.364;-1.224;2023-02-17T06:43:44;100860.25;;;11.25;100.00
70544;BME280;58097;48.364;-1.224;2023-02-17T06:46:10;100859.66;;;11.21;100.00
70544;BME280;58097;48.364;-1.224;2023-02-17T06:48:35;100860.53;;;11.22;100.00
70544;BME280;58097;48.364;-1.224;2023-02-17T06:51:01;100869.13;;;11.18;100.00
70544;BME280;58097;48.364;-1.224;2023-02-17T06:53:26;100869.28;;;11.17;100.00
70544;BME280;58097;48.364;-1.224;2023-02-17T06:55:52;100876.28;;;11.21;100.00
70544;BME280;58097;48.364;-1.224;2023-02-17T06:58:17;100872.50;;;11.22;100.00
70544;BME280;58097;48.364;-1.224;2023-02-17T07:00:43;100872.50;;;11.22;100.00
70544;BME280;58097;48.364;-1.224;2023-02-17T07:03:08;100877.00;;;11.23;100.00
70544;BME280;58097;48.364;-1.224;2023-02-17T07:05:35;100868.69;;;11.23;100.00
70544;BME280;58097;48.364;-1.224;2023-02-17T07:08:01;100871.31;;;11.25;100.00
70544;BME280;58097;48.364;-1.224;2023-02-17T07:10:27;100874.25;;;11.23;100.00
70544;BME280;58097;48.364;-1.224;2023-02-17T07:12:53;100882.09;;;11.18;100.00
70544;BME280;58097;48.364;-1.224;2023-02-17T07:15:18;100874.09;;;11.15;100.00
70544;BME280;58097;48.364;-1.224;2023-02-17T07:17:43;100884.28;;;11.14;100.00
70544;BME280;58097;48.364;-1.224;2023-02-17T07:20:09;100873.22;;;11.14;100.00
70544;BME280;58097;48.364;-1.224;2023-02-17T07:22:35;100879.47;;;11.16;100.00
70544;BME280;58097;48.364;-1.224;2023-02-17T07:25:00;100878.31;;;11.19;100.00
70544;BME280;58097;48.364;-1.224;2023-02-17T07:27:26;100878.16;;;11.21;100.00
70544;BME280;58097;48.364;-1.224;2023-02-17T07:29:51;100885.31;;;11.23;100.00
70544;BME280;58097;48.364;-1.224;2023-02-17T07:32:16;100884.91;;;11.28;100.00
70544;BME280;58097;48.364;-1.224;2023-02-17T07:34:42;100887.25;;;11.32;100.00
70544;BME280;58097;48.364;-1.224;2023-02-17T07:37:08;100892.19;;;11.29;100.00
70544;BME280;58097;48.364;-1.224;2023-02-17T07:39:33;100883.75;;;11.30;100.00
70544;BME280;58097;48.364;-1.224;2023-02-17T07:41:59;100895.06;;;11.27;100.00
70544;BME280;58097;48.364;-1.224;2023-02-17T07:44:26;100896.56;;;11.31;100.00
70544;BME280;58097;48.364;-1.224;2023-02-17T07:46:52;100900.06;;;11.33;100.00
70544;BME280;58097;48.364;-1.224;2023-02-17T07:49:17;100907.06;;;11.37;100.00
70544;BME280;58097;48.364;-1.224;2023-02-17T07:51:43;100904.00;;;11.40;100.00
70544;BME280;58097;48.364;-1.224;2023-02-17T07:54:08;100912.00;;;11.43;100.00
70544;BME280;58097;48.364;-1.224;2023-02-17T07:56:33;100913.47;;;11.47;100.00
70544;BME280;58097;48.364;-1.224;2023-02-17T07:58:59;100915.50;;;11.45;100.00
70544;BME280;58097;48.364;-1.224;2023-02-17T08:01:25;100920.91;;;11.47;100.00
70544;BME280;58097;48.364;-1.224;2023-02-17T08:03:51;100920.91;;;11.47;100.00
70544;BME280;58097;48.364;-1.224;2023-02-17T08:06:22;100921.78;;;11.47;100.00
70544;BME280;58097;48.364;-1.224;2023-02-17T08:08:49;100923.38;;;11.50;100.00
70544;BME280;58097;48.364;-1.224;2023-02-17T08:11:33;100923.09;;;11.53;100.00
70544;BME280;58097;48.364;-1.224;2023-02-17T08:14:20;100926.47;;;11.57;100.00
70544;BME280;58097;48.364;-1.224;2023-02-17T08:16:46;100921.69;;;11.59;100.00
70544;BME280;58097;48.364;-1.224;2023-02-17T08:19:11;100921.69;;;11.59;100.00
70544;BME280;58097;48.364;-1.224;2023-02-17T08:21:37;100921.81;;;11.57;100.00
70544;BME280;58097;48.364;-1.224;2023-02-17T08:24:02;100922.56;;;11.59;100.00
70544;BME280;58097;48.364;-1.224;2023-02-17T08:26:28;100932.03;;;11.57;100.00
70544;BME280;58097;48.364;-1.224;2023-02-17T08:28:54;100925.47;;;11.58;100.00
70544;BME280;58097;48.364;-1.224;2023-02-17T08:31:40;100928.81;;;11.61;100.00
70544;BME280;58097;48.364;-1.224;2023-02-17T08:34:06;100930.28;;;11.65;100.00
70544;BME280;58097;48.364;-1.224;2023-02-17T08:36:33;100929.13;;;11.68;100.00
70544;BME280;58097;48.364;-1.224;2023-02-17T08:38:59;100928.69;;;11.72;100.00
70544;BME280;58097;48.364;-1.224;2023-02-17T08:41:30;100930.44;;;11.73;100.00
70544;BME280;58097;48.364;-1.224;2023-02-17T08:44:01;100931.31;;;11.74;100.00
70544;BME280;58097;48.364;-1.224;2023-02-17T08:46:27;100933.34;;;11.72;100.00
70544;BME280;58097;48.364;-1.224;2023-02-17T08:48:53;100937.84;;;11.73;100.00
70544;BME280;58097;48.364;-1.224;2023-02-17T08:51:22;100934.22;;;11.72;100.00
70544;BME280;58097;48.364;-1.224;2023-02-17T08:53:50;100945.16;;;11.74;100.00
70544;BME280;58097;48.364;-1.224;2023-02-17T08:56:15;100938.44;;;11.76;100.00
70544;BME280;58097;48.364;-1.224;2023-02-17T08:58:41;100940.94;;;11.79;100.00
70544;BME280;58097;48.364;-1.224;2023-02-17T09:01:06;100949.59;;;11.86;100.00
70544;BME280;58097;48.364;-1.224;2023-02-17T09:03:34;100948.28;;;11.90;100.00
70544;BME280;58097;48.364;-1.224;2023-02-17T09:06:37;100953.53;;;11.93;100.00
70544;BME280;58097;48.364;-1.224;2023-02-17T09:09:04;100948.72;;;11.95;100.00
70544;BME280;58097;48.364;-1.224;2023-02-17T09:11:30;100948.72;;;11.95;100.00
70544;BME280;58097;48.364;-1.224;2023-02-17T09:13:56;100960.22;;;12.00;100.00
70544;BME280;58097;48.364;-1.224;2023-02-17T09:16:21;100959.78;;;12.05;100.00
70544;BME280;58097;48.364;-1.224;2023-02-17T09:18:48;100964.88;;;12.09;100.00
70544;BME280;58097;48.364;-1.224;2023-02-17T09:21:14;100962.44;;;12.16;100.00
70544;BME280;58097;48.364;-1.224;2023-02-17T09:23:39;100963.72;;;12.22;100.00
70544;BME280;58097;48.364;-1.224;2023-02-17T09:26:07;100973.22;;;12.29;100.00
70544;BME280;58097;48.364;-1.224;2023-02-17T09:28:34;100966.34;;;12.33;100.00
70544;BME280;58097;48.364;-1.224;2023-02-17T09:31:27;100967.66;;;12.38;100.00
70544;BME280;58097;48.364;-1.224;2023-02-17T09:33:54;100971.13;;;12.40;100.00
70544;BME280;58097;48.364;-1.224;2023-02-17T09:36:21;100976.53;;;12.42;100.00
70544;BME280;58097;48.364;-1.224;2023-02-17T09:38:48;100980.34;;;12.41;100.00
70544;BME280;58097;48.364;-1.224;2023-02-17T09:41:25;100974.63;;;12.43;100.00
70544;BME280;58097;48.364;-1.224;2023-02-17T09:43:52;100978.44;;;12.41;100.00
70544;BME280;58097;48.364;-1.224;2023-02-17T09:48:55;100986.34;;;12.46;100.00
70544;BME280;58097;48.364;-1.224;2023-02-17T09:51:34;100978.03;;;12.46;100.00
70544;BME280;58097;48.364;-1.224;2023-02-17T09:54:06;100987.06;;;12.48;100.00
70544;BME280;58097;48.364;-1.224;2023-02-17T09:56:37;100996.41;;;12.47;100.00
70544;BME280;58097;48.364;-1.224;2023-02-17T09:59:38;100995.53;;;12.47;100.00
70544;BME280;58097;48.364;-1.224;2023-02-17T10:02:32;100994.50;;;12.48;100.00
70544;BME280;58097;48.364;-1.224;2023-02-17T10:05:00;100994.50;;;12.48;100.00
70544;BME280;58097;48.364;-1.224;2023-02-17T10:07:32;100997.13;;;12.49;100.00
70544;BME280;58097;48.364;-1.224;2023-02-17T10:10:34;100993.47;;;12.49;100.00
70544;BME280;58097;48.364;-1.224;2023-02-17T10:12:54;100990.84;;;12.47;100.00
70544;BME280;58097;48.364;-1.224;2023-02-17T10:15:26;100993.94;;;12.44;100.00
70544;BME280;58097;48.364;-1.224;2023-02-17T10:18:05;100997.25;;;12.38;100.00
70544;BME280;58097;48.364;-1.224;2023-02-17T10:23:06;100994.22;;;12.31;100.00
70544;BME280;58097;48.364;-1.224;2023-02-17T10:28:52;101002.09;;;12.36;100.00
70544;BME280;58097;48.364;-1.224;2023-02-17T10:34:04;101011.28;;;12.36;100.00
70544;BME280;58097;48.364;-1.224;2023-02-17T10:39:38;101009.66;;;12.34;100.00
70544;BME280;58097;48.364;-1.224;2023-02-17T10:42:15;101013.63;;;12.31;100.00
70544;BME280;58097;48.364;-1.224;2023-02-17T10:44:45;101019.00;;;12.33;100.00
70544;BME280;58097;48.364;-1.224;2023-02-17T10:47:11;101020.75;;;12.34;100.00
70544;BME280;58097;48.364;-1.224;2023-02-17T10:49:42;101018.41;;;12.39;100.00
70544;BME280;58097;48.364;-1.224;2023-02-17T10:52:19;101018.72;;;12.36;100.00
70544;BME280;58097;48.364;-1.224;2023-02-17T10:54:53;101015.66;;;12.39;100.00
70544;BME280;58097;48.364;-1.224;2023-02-17T10:57:20;101015.38;;;12.32;100.00
70544;BME280;58097;48.364;-1.224;2023-02-17T10:59:48;101018.28;;;12.31;100.00
70544;BME280;58097;48.364;-1.224;2023-02-17T11:02:41;101015.66;;;12.29;100.00
70544;BME280;58097;48.364;-1.224;2023-02-17T11:05:07;101022.94;;;12.30;100.00
70544;BME280;58097;48.364;-1.224;2023-02-17T11:07:44;101028.06;;;12.35;100.00
70544;BME280;58097;48.364;-1.224;2023-02-17T11:10:42;101035.06;;;12.39;100.00
70544;BME280;58097;48.364;-1.224;2023-02-17T11:13:30;101031.09;;;12.41;100.00
70544;BME280;58097;48.364;-1.224;2023-02-17T11:15:57;101033.63;;;12.45;100.00
70544;BME280;58097;48.364;-1.224;2023-02-17T11:18:27;101030.41;;;12.49;100.00
70544;BME280;58097;48.364;-1.224;2023-02-17T11:21:06;101028.66;;;12.48;100.00
70544;BME280;58097;48.364;-1.224;2023-02-17T11:23:32;101034.06;;;12.50;100.00
70544;BME280;58097;48.364;-1.224;2023-02-17T11:26:15;101035.50;;;12.54;100.00
70544;BME280;58097;48.364;-1.224;2023-02-17T11:28:41;101040.75;;;12.57;100.00
70544;BME280;58097;48.364;-1.224;2023-02-17T11:31:06;101030.38;;;12.59;100.00
70544;BME280;58097;48.364;-1.224;2023-02-17T11:33:45;101035.78;;;12.60;100.00
70544;BME280;58097;48.364;-1.224;2023-02-17T11:36:22;101040.31;;;12.61;100.00
70544;BME280;58097;48.364;-1.224;2023-02-17T11:38:48;101038.13;;;12.65;100.00
70544;BME280;58097;48.364;-1.224;2023-02-17T11:41:13;101037.53;;;12.61;100.00
70544;BME280;58097;48.364;-1.224;2023-02-17T11:43:53;101042.94;;;12.63;100.00
70544;BME280;58097;48.364;-1.224;2023-02-17T11:46:37;101047.59;;;12.62;100.00
70544;BME280;58097;48.364;-1.224;2023-02-17T11:49:28;101041.63;;;12.57;100.00
70544;BME280;58097;48.364;-1.224;2023-02-17T11:55:01;101034.19;;;12.58;100.00
70544;BME280;58097;48.364;-1.224;2023-02-17T12:03:16;101021.19;;;12.58;100.00
70544;BME280;58097;48.364;-1.224;2023-02-17T12:11:10;101023.38;;;12.64;100.00
70544;BME280;58097;48.364;-1.224;2023-02-17T12:32:12;101003.31;;;12.90;100.00
70544;BME280;58097;48.364;-1.224;2023-02-17T12:35:00;100993.81;;;12.92;100.00
70544;BME280;58097;48.364;-1.224;2023-02-17T12:37:30;100997.47;;;12.93;100.00
70544;BME280;58097;48.364;-1.224;2023-02-17T12:40:03;101000.09;;;12.94;100.00
70544;BME280;58097;48.364;-1.224;2023-02-17T12:42:39;100997.47;;;12.93;100.00
70544;BME280;58097;48.364;-1.224;2023-02-17T12:45:21;100990.59;;;12.97;100.00
70544;BME280;58097;48.364;-1.224;2023-02-17T12:48:01;100989.72;;;12.96;100.00
70544;BME280;58097;48.364;-1.224;2023-02-17T12:50:38;100990.16;;;13.01;100.00
70544;BME280;58097;48.364;-1.224;2023-02-17T12:53:11;100978.63;;;13.06;100.00
70544;BME280;58097;48.364;-1.224;2023-02-17T12:55:43;100979.19;;;13.10;100.00
70544;BME280;58097;48.364;-1.224;2023-02-17T12:58:19;100975.22;;;13.12;100.00
70544;BME280;58097;48.364;-1.224;2023-02-17T13:01:12;100975.66;;;13.17;100.00
70544;BME280;58097;48.364;-1.224;2023-02-17T13:03:41;100969.50;;;13.23;100.00
70544;BME280;58097;48.364;-1.224;2023-02-17T13:08:52;100966.41;;;13.36;100.00
70544;BME280;58097;48.364;-1.224;2023-02-17T13:11:31;100956.56;;;13.42;100.00
70544;BME280;58097;48.364;-1.224;2023-02-17T13:14:09;100960.63;;;13.47;100.00
70544;BME280;58097;48.364;-1.224;2023-02-17T13:16:44;100961.19;;;13.51;100.00
70544;BME280;58097;48.364;-1.224;2023-02-17T13:19:13;100960.16;;;13.52;100.00
70544;BME280;58097;48.364;-1.224;2023-02-17T13:21:51;100960.72;;;13.55;100.00
70544;BME280;58097;48.364;-1.224;2023-02-17T13:24:51;100961.31;;;13.59;99.77
70544;BME280;58097;48.364;-1.224;2023-02-17T13:27:34;100955.44;;;13.62;99.54
70544;BME280;58097;48.364;-1.224;2023-02-17T13:32:35;100941.88;;;13.77;100.00
70544;BME280;58097;48.364;-1.224;2023-02-17T13:35:05;100942.44;;;13.80;99.42
70544;BME280;58097;48.364;-1.224;2023-02-17T13:39:57;100948.53;;;13.84;98.68
70544;BME280;58097;48.364;-1.224;2023-02-17T13:42:39;100943.25;;;13.90;99.34
70544;BME280;58097;48.364;-1.224;2023-02-17T13:47:44;100943.94;;;14.10;99.42
70544;BME280;58097;48.364;-1.224;2023-02-17T13:50:42;100949.50;;;14.10;98.99
70544;BME280;58097;48.364;-1.224;2023-02-17T13:55:48;100964.66;;;13.80;96.65
70544;BME280;58097;48.364;-1.224;2023-02-17T13:58:24;100960.69;;;13.65;97.03
70544;BME280;58097;48.364;-1.224;2023-02-17T14:00:51;100956.81;;;13.48;96.61
70544;BME280;58097;48.364;-1.224;2023-02-17T14:03:50;100959.97;;;13.36;96.69
70544;BME280;58097;48.364;-1.224;2023-02-17T14:06:35;100964.09;;;13.22;96.88
70544;BME280;58097;48.364;-1.224;2023-02-17T14:09:17;100963.25;;;13.12;97.30